createdAt,value
2022-11-13T00:01:25.014Z,17.08
2022-11-13T00:04:10.731Z,18.17
2022-11-13T00:06:59.068Z,17.67
2022-11-13T00:09:44.288Z,17.83
2022-11-13T00:12:29.164Z,17.75
2022-11-13T00:15:13.982Z,17.33
2022-11-13T00:18:00.899Z,16.80
2022-11-13T00:20:45.948Z,16.38
2022-11-13T00:23:34.515Z,17.73
2022-11-13T00:26:20.996Z,18.58
2022-11-13T00:29:05.828Z,19.45
2022-11-13T00:31:50.694Z,18.95
2022-11-13T00:34:50.753Z,17.75
2022-11-13T00:37:35.842Z,18.00
2022-11-13T00:40:20.682Z,16.02
2022-11-13T00:43:05.544Z,16.60
2022-11-13T00:45:50.451Z,15.25
2022-11-13T00:48:35.611Z,15.38
2022-11-13T00:51:20.648Z,14.27
2022-11-13T00:54:05.327Z,14.60
2022-11-13T00:56:50.099Z,13.18
2022-11-13T00:59:34.780Z,12.20
2022-11-13T01:02:19.643Z,12.18
2022-11-13T01:05:04.526Z,12.65
2022-11-13T01:07:49.234Z,12.57
2022-11-13T01:10:34.572Z,12.43
2022-11-13T01:13:19.315Z,12.05
2022-11-13T01:16:08.428Z,11.90
2022-11-13T01:18:54.263Z,11.50
2022-11-13T01:21:39.309Z,11.98
2022-11-13T01:24:24.168Z,11.52
2022-11-13T01:27:08.939Z,11.68
2022-11-13T01:29:53.798Z,11.40
2022-11-13T01:32:38.495Z,11.50
2022-11-13T01:35:23.225Z,11.15
2022-11-13T01:38:07.900Z,11.27
2022-11-13T01:40:52.664Z,10.95
2022-11-13T01:43:38.396Z,10.90
2022-11-13T01:46:27.763Z,10.60
2022-11-13T01:49:12.530Z,11.00
2022-11-13T01:52:00.336Z,10.18
2022-11-13T01:55:00.960Z,9.80
2022-11-13T01:57:45.940Z,8.85
2022-11-13T02:00:30.580Z,8.68
2022-11-13T02:03:15.436Z,8.48
2022-11-13T02:06:00.364Z,8.38
2022-11-13T02:08:45.869Z,8.48
2022-11-13T02:11:30.928Z,8.63
2022-11-13T02:14:16.054Z,8.13
2022-11-13T02:17:03.066Z,8.20
2022-11-13T02:19:50.562Z,8.35
2022-11-13T02:22:43.581Z,8.00
2022-11-13T02:25:29.946Z,11.88
2022-11-13T02:28:14.815Z,13.50
2022-11-13T02:31:06.047Z,13.35
2022-11-13T02:33:51.011Z,10.13
2022-11-13T02:36:36.234Z,8.75
2022-11-13T02:39:21.308Z,8.88
2022-11-13T02:42:06.125Z,8.35
2022-11-13T02:44:50.929Z,7.88
2022-11-13T02:47:35.947Z,7.47
2022-11-13T02:50:20.931Z,7.43
2022-11-13T02:53:05.808Z,8.15
2022-11-13T02:55:50.694Z,7.63
2022-11-13T02:58:35.358Z,7.13
2022-11-13T03:01:20.226Z,6.80
2022-11-13T03:04:04.806Z,6.30
2022-11-13T03:06:49.526Z,6.35
2022-11-13T03:09:34.288Z,6.20
2022-11-13T03:12:18.993Z,5.93
2022-11-13T03:15:04.779Z,6.07
2022-11-13T03:17:49.790Z,6.07
2022-11-13T03:20:36.016Z,5.85
2022-11-13T03:23:20.917Z,5.97
2022-11-13T03:26:06.821Z,5.82
2022-11-13T03:28:51.859Z,5.50
2022-11-13T03:31:36.685Z,6.00
2022-11-13T03:34:21.529Z,5.93
2022-11-13T03:37:07.456Z,6.28
2022-11-13T03:39:52.144Z,5.82
2022-11-13T03:42:36.993Z,5.85
2022-11-13T03:45:21.723Z,5.68
2022-11-13T03:48:06.563Z,5.13
2022-11-13T03:50:52.861Z,5.30
2022-11-13T03:53:37.714Z,5.15
2022-11-13T03:56:22.292Z,5.75
2022-11-13T03:59:07.343Z,5.28
2022-11-13T04:01:52.322Z,5.15
2022-11-13T04:04:37.792Z,5.25
2022-11-13T04:07:22.568Z,5.18
2022-11-13T04:10:07.411Z,5.50
2022-11-13T04:12:52.393Z,5.28
2022-11-13T04:15:37.120Z,5.13
2022-11-13T04:18:21.822Z,5.70
2022-11-13T04:21:06.565Z,5.35
2022-11-13T04:23:51.365Z,6.05
2022-11-13T04:26:36.039Z,6.50
2022-11-13T04:29:20.766Z,5.70
2022-11-13T04:32:05.657Z,4.93
2022-11-13T04:34:50.319Z,6.63
2022-11-13T04:37:35.154Z,8.13
2022-11-13T04:40:19.860Z,8.60
2022-11-13T04:43:04.902Z,9.30
2022-11-13T04:45:52.010Z,7.10
2022-11-13T04:48:37.218Z,5.40
2022-11-13T04:51:21.936Z,5.93
2022-11-13T04:54:06.742Z,6.70
2022-11-13T04:56:51.582Z,6.75
2022-11-13T04:59:36.350Z,7.28
2022-11-13T05:02:21.589Z,8.93
2022-11-13T05:05:06.466Z,9.30
2022-11-13T05:07:52.107Z,10.23
2022-11-13T05:10:37.302Z,10.50
2022-11-13T05:13:22.456Z,8.18
2022-11-13T05:16:08.738Z,8.38
2022-11-13T05:18:53.383Z,7.80
2022-11-13T05:21:39.421Z,7.78
2022-11-13T05:24:24.261Z,9.95
2022-11-13T05:27:14.194Z,11.40
2022-11-13T05:30:02.067Z,11.40
2022-11-13T05:32:46.880Z,10.60
2022-11-13T05:35:31.738Z,9.60
2022-11-13T05:38:16.751Z,10.48
2022-11-13T05:41:05.870Z,9.90
2022-11-13T05:43:56.543Z,9.60
2022-11-13T05:46:43.691Z,8.93
2022-11-13T05:49:28.614Z,8.50
2022-11-13T05:52:13.352Z,8.73
2022-11-13T05:54:58.259Z,8.38
2022-11-13T05:57:43.085Z,8.43
2022-11-13T06:00:27.879Z,9.57
2022-11-13T06:03:12.480Z,9.90
2022-11-13T06:05:57.931Z,9.38
2022-11-13T06:08:43.263Z,9.55
2022-11-13T06:11:28.923Z,8.70
2022-11-13T06:14:13.976Z,7.05
2022-11-13T06:16:58.732Z,6.43
2022-11-13T06:19:44.791Z,6.18
2022-11-13T06:22:29.844Z,4.70
2022-11-13T06:25:14.637Z,4.50
2022-11-13T06:27:59.491Z,3.85
2022-11-13T06:30:44.326Z,3.70
2022-11-13T06:33:29.061Z,3.47
2022-11-13T06:36:14.969Z,3.50
2022-11-13T06:39:00.684Z,3.28
2022-11-13T06:41:45.962Z,3.45
2022-11-13T06:44:30.854Z,3.63
2022-11-13T06:47:15.539Z,3.42
2022-11-13T06:50:00.375Z,3.85
2022-11-13T06:52:45.232Z,4.35
2022-11-13T06:55:29.957Z,4.80
2022-11-13T06:58:15.177Z,4.60
2022-11-13T07:01:11.243Z,4.53
2022-11-13T07:03:56.072Z,5.50
2022-11-13T07:06:40.856Z,6.03
2022-11-13T07:09:25.617Z,6.22
2022-11-13T07:12:10.380Z,7.88
2022-11-13T07:14:55.180Z,9.00
2022-11-13T07:17:40.097Z,10.63
2022-11-13T07:20:25.337Z,10.57
2022-11-13T07:23:10.187Z,10.02
2022-11-13T07:25:55.659Z,8.15
2022-11-13T07:28:40.493Z,7.65
2022-11-13T07:31:25.299Z,6.82
2022-11-13T07:34:10.114Z,7.05
2022-11-13T07:36:54.911Z,5.90
2022-11-13T07:39:39.770Z,6.00
2022-11-13T07:42:24.442Z,5.97
2022-11-13T07:45:09.475Z,7.07
2022-11-13T07:48:04.009Z,7.00
2022-11-13T07:50:49.085Z,7.28
2022-11-13T07:53:35.615Z,5.97
2022-11-13T07:56:23.263Z,3.55
2022-11-13T07:59:08.691Z,3.50
2022-11-13T08:01:53.640Z,3.30
2022-11-13T08:04:38.484Z,3.10
2022-11-13T08:07:23.244Z,3.33
2022-11-13T08:10:08.400Z,3.10
2022-11-13T08:13:04.129Z,3.17
2022-11-13T08:15:48.903Z,3.60
2022-11-13T08:18:33.695Z,4.20
2022-11-13T08:21:18.473Z,3.88
2022-11-13T08:24:03.166Z,6.75
2022-11-13T08:26:47.983Z,6.45
2022-11-13T08:29:33.753Z,6.72
2022-11-13T08:32:19.297Z,6.00
2022-11-13T08:35:04.395Z,6.55
2022-11-13T08:37:49.150Z,5.32
2022-11-13T08:40:34.340Z,6.07
2022-11-13T08:43:19.583Z,8.35
2022-11-13T08:46:05.034Z,9.05
2022-11-13T08:48:50.129Z,8.68
2022-11-13T08:51:35.120Z,8.82
2022-11-13T08:54:20.766Z,8.93
2022-11-13T08:57:06.211Z,8.38
2022-11-13T08:59:51.429Z,8.27
2022-11-13T09:02:36.104Z,7.60
2022-11-13T09:05:20.889Z,8.75
2022-11-13T09:08:06.109Z,7.85
2022-11-13T09:10:50.979Z,6.35
2022-11-13T09:13:39.834Z,6.68
2022-11-13T09:16:28.089Z,6.32
2022-11-13T09:19:12.892Z,4.03
2022-11-13T09:21:57.960Z,3.60
2022-11-13T09:24:42.613Z,3.17
2022-11-13T09:27:27.508Z,2.78
2022-11-13T09:30:12.614Z,2.70
2022-11-13T09:32:58.792Z,2.80
2022-11-13T09:35:43.772Z,2.80
2022-11-13T09:38:31.867Z,5.05
2022-11-13T09:41:18.846Z,2.75
2022-11-13T09:44:05.466Z,2.50
2022-11-13T09:46:53.286Z,3.78
2022-11-13T09:49:40.531Z,3.75
2022-11-13T09:52:31.142Z,3.13
2022-11-13T09:55:17.135Z,3.65
2022-11-13T09:58:06.786Z,3.53
2022-11-13T10:00:52.163Z,3.90
2022-11-13T10:07:05.659Z,4.00
2022-11-13T10:10:01.908Z,3.88
2022-11-13T10:12:48.068Z,3.75
2022-11-13T10:15:33.056Z,3.58
2022-11-13T10:18:29.283Z,3.50
2022-11-13T10:21:26.600Z,3.65
2022-11-13T10:24:31.872Z,3.80
2022-11-13T10:30:01.776Z,3.60
2022-11-13T10:32:46.984Z,3.60
2022-11-13T10:35:38.200Z,3.75
2022-11-13T10:38:35.012Z,3.83
2022-11-13T10:41:20.995Z,3.92
2022-11-13T10:44:21.580Z,3.60
2022-11-13T10:47:26.486Z,3.00
2022-11-13T10:50:23.010Z,3.25
2022-11-13T10:53:15.459Z,3.33
2022-11-13T10:56:00.534Z,3.47
2022-11-13T10:58:45.258Z,3.03
2022-11-13T11:01:30.327Z,3.08
2022-11-13T11:04:23.980Z,2.70
2022-11-13T11:07:21.326Z,3.10
2022-11-13T11:10:18.403Z,2.92
2022-11-13T11:13:10.671Z,2.72
2022-11-13T11:15:58.699Z,4.15
2022-11-13T11:19:09.935Z,3.08
2022-11-13T11:22:02.098Z,3.40
2022-11-13T11:24:51.553Z,4.13
2022-11-13T11:27:39.884Z,4.53
2022-11-13T11:30:28.454Z,3.42
2022-11-13T11:33:32.094Z,4.35
2022-11-13T11:36:23.732Z,2.30
2022-11-13T11:39:29.316Z,2.40
2022-11-13T11:42:26.622Z,2.58
2022-11-13T11:45:15.575Z,2.10
2022-11-13T11:48:01.724Z,2.10
2022-11-13T11:50:55.772Z,2.00
2022-11-13T11:53:40.482Z,2.00
2022-11-13T11:56:34.630Z,2.08
2022-11-13T11:59:24.191Z,1.70
2022-11-13T12:02:14.951Z,2.05
2022-11-13T12:05:18.690Z,1.85
2022-11-13T12:08:11.845Z,1.80
2022-11-13T12:10:56.573Z,3.70
2022-11-13T12:13:47.583Z,2.38
2022-11-13T12:16:41.001Z,3.85
2022-11-13T12:19:29.013Z,3.42
2022-11-13T12:22:36.245Z,4.25
2022-11-13T12:25:27.618Z,4.10
2022-11-13T12:28:12.564Z,5.50
2022-11-13T12:31:16.001Z,5.32
2022-11-13T12:34:17.968Z,5.50
2022-11-13T12:37:05.866Z,5.95
2022-11-13T12:39:58.247Z,6.30
2022-11-13T12:42:48.128Z,5.68
2022-11-13T12:45:48.794Z,5.75
2022-11-13T12:48:35.444Z,5.38
2022-11-13T12:51:20.921Z,5.70
2022-11-13T12:54:05.813Z,5.75
2022-11-13T12:56:50.862Z,5.28
2022-11-13T12:59:36.731Z,5.20
2022-11-13T13:02:27.811Z,5.55
2022-11-13T13:05:18.761Z,6.00
2022-11-13T13:08:05.125Z,5.43
2022-11-13T13:11:16.687Z,6.10
2022-11-13T13:14:20.127Z,5.40
2022-11-13T13:17:05.691Z,5.38
2022-11-13T13:20:17.068Z,5.75
2022-11-13T13:23:05.970Z,5.50
2022-11-13T13:26:01.621Z,5.60
2022-11-13T13:28:49.751Z,5.40
2022-11-13T13:31:57.345Z,5.05
2022-11-13T13:35:01.005Z,5.20
2022-11-13T13:38:10.535Z,5.72
2022-11-13T13:41:09.454Z,4.95
2022-11-13T13:44:09.446Z,4.85
2022-11-13T13:46:56.449Z,4.82
2022-11-13T13:49:41.394Z,4.45
2022-11-13T13:52:33.641Z,4.75
2022-11-13T13:55:28.035Z,4.30
2022-11-13T13:58:14.770Z,4.35
2022-11-13T14:04:12.349Z,7.18
2022-11-13T14:06:58.428Z,7.55
2022-11-13T14:09:43.037Z,4.40
2022-11-13T14:12:27.882Z,4.35
2022-11-13T14:15:18.929Z,5.03
2022-11-13T14:18:08.203Z,3.50
2022-11-13T14:20:55.165Z,3.95
2022-11-13T14:23:41.559Z,3.50
2022-11-13T14:26:26.776Z,3.92
2022-11-13T14:29:19.926Z,4.22
2022-11-13T14:32:06.052Z,4.10
2022-11-13T14:34:52.526Z,3.63
2022-11-13T14:37:38.647Z,4.10
2022-11-13T14:40:25.652Z,3.72
2022-11-13T14:43:15.994Z,4.30
2022-11-13T14:46:03.841Z,4.55
2022-11-13T14:48:52.947Z,4.25
2022-11-13T14:51:38.756Z,4.28
2022-11-13T14:54:33.768Z,3.72
2022-11-13T14:57:26.853Z,3.90
2022-11-13T15:00:27.186Z,5.13
2022-11-13T15:03:12.248Z,4.63
2022-11-13T15:05:57.613Z,4.50
2022-11-13T15:08:42.803Z,7.15
2022-11-13T15:11:27.764Z,5.65
2022-11-13T15:14:13.175Z,5.00
2022-11-13T15:16:58.787Z,4.95
2022-11-13T15:19:44.528Z,4.72
2022-11-13T15:22:29.186Z,3.47
2022-11-13T15:25:15.650Z,6.47
2022-11-13T15:28:00.504Z,4.97
2022-11-13T15:30:45.349Z,4.85
2022-11-13T15:33:30.354Z,4.80
2022-11-13T15:36:15.236Z,13.18
2022-11-13T15:39:04.802Z,17.15
2022-11-13T15:41:51.762Z,14.10
2022-11-13T15:44:36.562Z,7.13
2022-11-13T15:47:26.874Z,5.25
2022-11-13T15:50:14.853Z,6.20
2022-11-13T15:53:04.995Z,7.82
2022-11-13T15:55:50.292Z,6.55
2022-11-13T15:58:35.175Z,8.60
2022-11-13T16:01:20.156Z,7.68
2022-11-13T16:04:05.992Z,13.02
2022-11-13T16:06:51.047Z,10.00
2022-11-13T16:09:35.853Z,9.35
2022-11-13T16:12:20.700Z,8.30
2022-11-13T16:15:05.694Z,7.85
2022-11-13T16:17:52.370Z,8.30
2022-11-13T16:20:36.964Z,9.45
2022-11-13T16:23:22.337Z,12.00
2022-11-13T16:26:12.403Z,13.07
2022-11-13T16:29:13.337Z,10.95
2022-11-13T16:31:58.895Z,10.13
2022-11-13T16:34:44.517Z,11.45
2022-11-13T16:37:29.434Z,11.50
2022-11-13T16:40:19.098Z,12.63
2022-11-13T16:43:04.228Z,11.73
2022-11-13T16:45:49.147Z,10.07
2022-11-13T16:48:34.301Z,8.60
2022-11-13T16:51:19.148Z,7.85
2022-11-13T16:54:04.157Z,7.75
2022-11-13T16:56:48.864Z,9.32
2022-11-13T16:59:33.802Z,18.27
2022-11-13T17:02:19.027Z,15.40
2022-11-13T17:05:04.464Z,11.75
2022-11-13T17:07:52.999Z,9.27
2022-11-13T17:10:37.696Z,8.80
2022-11-13T17:13:22.487Z,9.63
2022-11-13T17:16:08.941Z,10.05
2022-11-13T17:18:54.196Z,10.82
2022-11-13T17:21:43.995Z,12.10
2022-11-13T17:24:29.771Z,12.55
2022-11-13T17:27:14.547Z,13.95
2022-11-13T17:29:59.413Z,14.10
2022-11-13T17:32:44.123Z,12.27
2022-11-13T17:35:28.954Z,11.95
2022-11-13T17:38:13.931Z,12.85
2022-11-13T17:41:06.188Z,14.65
2022-11-13T17:43:50.970Z,12.85
2022-11-13T17:46:35.835Z,11.63
2022-11-13T17:49:21.094Z,12.13
2022-11-13T17:52:06.274Z,12.65
2022-11-13T17:54:50.845Z,12.63
2022-11-13T17:57:35.668Z,12.35
2022-11-13T18:00:20.682Z,10.25
2022-11-13T18:03:05.346Z,10.02
2022-11-13T18:05:50.052Z,10.98
2022-11-13T18:08:37.325Z,11.20
2022-11-13T18:11:23.637Z,11.98
2022-11-13T18:14:08.738Z,16.20
2022-11-13T18:16:53.665Z,20.75
2022-11-13T18:19:38.544Z,22.63
2022-11-13T18:22:23.458Z,21.02
2022-11-13T18:25:08.419Z,20.15
2022-11-13T18:27:53.197Z,18.42
2022-11-13T18:30:39.209Z,16.30
2022-11-13T18:33:24.108Z,12.57
2022-11-13T18:36:09.164Z,11.63
2022-11-13T18:38:54.331Z,10.93
2022-11-13T18:41:39.537Z,10.98
2022-11-13T18:44:24.505Z,9.23
2022-11-13T18:47:09.287Z,8.60
2022-11-13T18:49:54.612Z,7.80
2022-11-13T18:52:39.407Z,7.65
2022-11-13T18:55:24.447Z,9.07
2022-11-13T18:58:09.083Z,8.75
2022-11-13T19:00:54.231Z,9.43
2022-11-13T19:03:41.529Z,8.65
2022-11-13T19:06:36.598Z,12.50
2022-11-13T19:09:21.578Z,10.68
2022-11-13T19:12:06.897Z,9.90
2022-11-13T19:14:51.751Z,9.45
2022-11-13T19:17:36.491Z,10.55
2022-11-13T19:20:21.438Z,10.65
2022-11-13T19:23:09.197Z,11.25
2022-11-13T19:25:54.275Z,11.80
2022-11-13T19:28:39.203Z,13.05
2022-11-13T19:31:26.343Z,12.77
2022-11-13T19:34:12.136Z,13.60
2022-11-13T19:36:56.831Z,10.35
2022-11-13T19:39:41.659Z,9.93
2022-11-13T19:42:26.415Z,9.70
2022-11-13T19:45:11.200Z,7.53
2022-11-13T19:47:55.890Z,6.15
2022-11-13T19:50:40.818Z,4.97
2022-11-13T19:53:25.696Z,5.72
2022-11-13T19:56:10.465Z,7.47
2022-11-13T19:58:55.678Z,7.18
2022-11-13T20:01:41.818Z,7.35
2022-11-13T20:04:26.579Z,6.70
2022-11-13T20:07:11.453Z,6.13
2022-11-13T20:09:56.677Z,4.82
2022-11-13T20:12:41.503Z,5.40
2022-11-13T20:15:26.196Z,5.30
2022-11-13T20:18:11.220Z,4.70
2022-11-13T20:20:56.014Z,4.93
2022-11-13T20:23:41.141Z,5.53
2022-11-13T20:26:27.360Z,4.68
2022-11-13T20:29:12.198Z,4.88
2022-11-13T20:31:56.848Z,4.90
2022-11-13T20:34:41.628Z,4.75
2022-11-13T20:37:26.388Z,4.97
2022-11-13T20:40:11.498Z,5.00
2022-11-13T20:42:56.508Z,4.85
2022-11-13T20:45:41.246Z,4.38
2022-11-13T20:48:26.242Z,4.85
2022-11-13T20:51:11.340Z,5.15
2022-11-13T20:53:56.486Z,5.22
2022-11-13T20:56:41.322Z,5.78
2022-11-13T20:59:26.487Z,6.20
2022-11-13T21:02:11.643Z,6.95
2022-11-13T21:04:56.335Z,6.82
2022-11-13T21:07:41.159Z,6.18
2022-11-13T21:10:25.895Z,6.85
2022-11-13T21:13:10.745Z,5.97
2022-11-13T21:15:55.426Z,5.63
2022-11-13T21:18:40.381Z,6.25
2022-11-13T21:21:26.361Z,4.63
2022-11-13T21:24:11.473Z,4.43
2022-11-13T21:26:57.029Z,4.50
2022-11-13T21:29:41.794Z,4.85
2022-11-13T21:32:26.731Z,4.72
2022-11-13T21:35:11.550Z,4.18
2022-11-13T21:37:56.226Z,4.10
2022-11-13T21:40:41.130Z,4.32
2022-11-13T21:43:25.967Z,4.25
2022-11-13T21:46:10.692Z,4.03
2022-11-13T21:48:57.087Z,4.53
2022-11-13T21:51:42.712Z,4.97
2022-11-13T21:54:27.644Z,4.68
2022-11-13T21:57:13.538Z,5.05
2022-11-13T21:59:58.609Z,5.00
2022-11-13T22:02:43.701Z,4.90
2022-11-13T22:05:28.549Z,4.50
2022-11-13T22:08:13.204Z,4.43
2022-11-13T22:10:58.138Z,4.75
2022-11-13T22:13:43.793Z,4.45
2022-11-13T22:16:29.840Z,4.60
2022-11-13T22:19:16.152Z,4.18
2022-11-13T22:22:00.799Z,4.85
2022-11-13T22:24:45.546Z,4.43
2022-11-13T22:27:30.290Z,5.00
2022-11-13T22:30:15.314Z,4.88
2022-11-13T22:33:00.226Z,4.95
2022-11-13T22:35:45.014Z,5.00
2022-11-13T22:38:30.323Z,5.10
2022-11-13T22:41:22.696Z,5.03
2022-11-13T22:44:11.451Z,5.40
2022-11-13T22:46:56.448Z,5.45
2022-11-13T22:49:41.191Z,5.32
2022-11-13T22:52:26.695Z,5.72
2022-11-13T22:55:11.432Z,5.75
2022-11-13T22:57:57.908Z,6.15
2022-11-13T23:00:42.823Z,5.72
2022-11-13T23:03:27.711Z,5.82
2022-11-13T23:06:13.769Z,5.68
2022-11-13T23:09:00.140Z,6.03
2022-11-13T23:11:44.910Z,6.78
2022-11-13T23:14:29.812Z,6.70
2022-11-13T23:17:14.509Z,6.38
2022-11-13T23:19:59.333Z,6.30
2022-11-13T23:22:44.025Z,6.22
2022-11-13T23:25:29.217Z,6.43
2022-11-13T23:28:13.981Z,6.38
2022-11-13T23:30:58.810Z,6.03
2022-11-13T23:33:43.682Z,6.40
2022-11-13T23:36:30.397Z,6.25
2022-11-13T23:39:15.511Z,6.63
2022-11-13T23:42:00.321Z,6.70
2022-11-13T23:44:45.159Z,6.68
2022-11-13T23:47:29.819Z,6.32
2022-11-13T23:50:14.930Z,6.60
2022-11-13T23:52:59.556Z,6.35
2022-11-13T23:55:44.650Z,7.20
2022-11-13T23:58:32.159Z,7.07
